sensor_id;sensor_type;location;lat;lon;timestamp;temperature;humidity
64817;DHT22;69411;45.656;11.740;2024-02-15T00:00:40;7.00;70.50
64817;DHT22;69411;45.656;11.740;2024-02-15T00:03:08;6.90;70.40
64817;DHT22;69411;45.656;11.740;2024-02-15T00:05:39;6.90;70.20
64817;DHT22;69411;45.656;11.740;2024-02-15T00:08:05;6.90;70.50
64817;DHT22;69411;45.656;11.740;2024-02-15T00:10:32;6.90;70.70
64817;DHT22;69411;45.656;11.740;2024-02-15T00:12:58;6.90;70.70
64817;DHT22;69411;45.656;11.740;2024-02-15T00:15:24;6.90;70.70
64817;DHT22;69411;45.656;11.740;2024-02-15T00:17:50;6.80;70.80
64817;DHT22;69411;45.656;11.740;2024-02-15T00:20:17;6.80;71.10
64817;DHT22;69411;45.656;11.740;2024-02-15T00:22:43;6.80;71.20
64817;DHT22;69411;45.656;11.740;2024-02-15T00:25:09;6.70;71.30
64817;DHT22;69411;45.656;11.740;2024-02-15T00:27:37;6.70;71.40
64817;DHT22;69411;45.656;11.740;2024-02-15T00:30:04;6.70;71.40
64817;DHT22;69411;45.656;11.740;2024-02-15T00:32:36;6.70;71.40
64817;DHT22;69411;45.656;11.740;2024-02-15T00:35:03;6.60;71.80
64817;DHT22;69411;45.656;11.740;2024-02-15T00:37:33;6.50;71.80
64817;DHT22;69411;45.656;11.740;2024-02-15T00:39:59;6.40;72.10
64817;DHT22;69411;45.656;11.740;2024-02-15T00:42:25;6.40;72.10
64817;DHT22;69411;45.656;11.740;2024-02-15T00:44:51;6.40;72.20
64817;DHT22;69411;45.656;11.740;2024-02-15T00:47:17;6.30;72.20
64817;DHT22;69411;45.656;11.740;2024-02-15T00:49:46;6.40;72.20
64817;DHT22;69411;45.656;11.740;2024-02-15T00:52:12;6.40;72.10
64817;DHT22;69411;45.656;11.740;2024-02-15T00:54:39;6.40;71.80
64817;DHT22;69411;45.656;11.740;2024-02-15T00:57:04;6.40;71.90
64817;DHT22;69411;45.656;11.740;2024-02-15T00:59:30;6.40;72.00
64817;DHT22;69411;45.656;11.740;2024-02-15T01:01:56;6.40;72.00
64817;DHT22;69411;45.656;11.740;2024-02-15T01:04:22;6.40;71.80
64817;DHT22;69411;45.656;11.740;2024-02-15T01:06:48;6.50;71.60
64817;DHT22;69411;45.656;11.740;2024-02-15T01:09:14;6.50;71.70
64817;DHT22;69411;45.656;11.740;2024-02-15T01:11:40;6.50;71.90
64817;DHT22;69411;45.656;11.740;2024-02-15T01:14:06;6.50;71.70
64817;DHT22;69411;45.656;11.740;2024-02-15T01:16:36;6.50;71.80
64817;DHT22;69411;45.656;11.740;2024-02-15T01:19:03;6.50;71.70
64817;DHT22;69411;45.656;11.740;2024-02-15T01:21:30;6.50;71.50
64817;DHT22;69411;45.656;11.740;2024-02-15T01:23:59;6.50;71.50
64817;DHT22;69411;45.656;11.740;2024-02-15T01:26:26;6.50;71.70
64817;DHT22;69411;45.656;11.740;2024-02-15T01:28:53;6.50;71.40
64817;DHT22;69411;45.656;11.740;2024-02-15T01:31:19;6.50;71.60
64817;DHT22;69411;45.656;11.740;2024-02-15T01:33:45;6.50;71.70
64817;DHT22;69411;45.656;11.740;2024-02-15T01:36:15;6.50;71.60
64817;DHT22;69411;45.656;11.740;2024-02-15T01:38:42;6.50;71.40
64817;DHT22;69411;45.656;11.740;2024-02-15T01:41:08;6.50;71.40
64817;DHT22;69411;45.656;11.740;2024-02-15T01:43:34;6.50;71.60
64817;DHT22;69411;45.656;11.740;2024-02-15T01:46:06;6.50;71.70
64817;DHT22;69411;45.656;11.740;2024-02-15T01:48:33;6.40;71.70
64817;DHT22;69411;45.656;11.740;2024-02-15T01:50:59;6.40;71.70
64817;DHT22;69411;45.656;11.740;2024-02-15T01:53:25;6.40;71.70
64817;DHT22;69411;45.656;11.740;2024-02-15T01:55:53;6.40;71.80
64817;DHT22;69411;45.656;11.740;2024-02-15T01:58:21;6.30;72.00
64817;DHT22;69411;45.656;11.740;2024-02-15T02:00:48;6.30;71.90
64817;DHT22;69411;45.656;11.740;2024-02-15T02:03:15;6.30;72.10
64817;DHT22;69411;45.656;11.740;2024-02-15T02:05:42;6.30;72.10
64817;DHT22;69411;45.656;11.740;2024-02-15T02:08:08;6.30;72.20
64817;DHT22;69411;45.656;11.740;2024-02-15T02:10:41;6.30;72.20
64817;DHT22;69411;45.656;11.740;2024-02-15T02:13:08;6.30;72.00
64817;DHT22;69411;45.656;11.740;2024-02-15T02:15:34;6.20;72.20
64817;DHT22;69411;45.656;11.740;2024-02-15T02:18:04;6.20;72.60
64817;DHT22;69411;45.656;11.740;2024-02-15T02:20:35;6.20;72.40
64817;DHT22;69411;45.656;11.740;2024-02-15T02:23:09;6.20;72.80
64817;DHT22;69411;45.656;11.740;2024-02-15T02:25:38;6.20;72.50
64817;DHT22;69411;45.656;11.740;2024-02-15T02:28:06;6.30;72.80
64817;DHT22;69411;45.656;11.740;2024-02-15T02:30:32;6.30;72.80
64817;DHT22;69411;45.656;11.740;2024-02-15T02:32:58;6.40;72.70
64817;DHT22;69411;45.656;11.740;2024-02-15T02:35:25;6.40;72.40
64817;DHT22;69411;45.656;11.740;2024-02-15T02:37:51;6.50;72.90
64817;DHT22;69411;45.656;11.740;2024-02-15T02:40:20;6.50;73.10
64817;DHT22;69411;45.656;11.740;2024-02-15T02:45:19;6.40;72.70
64817;DHT22;69411;45.656;11.740;2024-02-15T02:47:49;6.40;72.70
64817;DHT22;69411;45.656;11.740;2024-02-15T02:50:15;6.40;72.80
64817;DHT22;69411;45.656;11.740;2024-02-15T02:52:41;6.40;72.70
64817;DHT22;69411;45.656;11.740;2024-02-15T02:55:07;6.40;72.80
64817;DHT22;69411;45.656;11.740;2024-02-15T02:57:38;6.40;72.80
64817;DHT22;69411;45.656;11.740;2024-02-15T03:00:05;6.50;72.70
64817;DHT22;69411;45.656;11.740;2024-02-15T03:02:42;6.50;72.70
64817;DHT22;69411;45.656;11.740;2024-02-15T03:05:09;6.60;72.50
64817;DHT22;69411;45.656;11.740;2024-02-15T03:07:37;6.60;72.30
64817;DHT22;69411;45.656;11.740;2024-02-15T03:10:04;6.60;72.40
64817;DHT22;69411;45.656;11.740;2024-02-15T03:12:42;6.60;72.00
64817;DHT22;69411;45.656;11.740;2024-02-15T03:15:12;6.50;72.00
64817;DHT22;69411;45.656;11.740;2024-02-15T03:17:43;6.50;72.20
64817;DHT22;69411;45.656;11.740;2024-02-15T03:20:11;6.50;71.90
64817;DHT22;69411;45.656;11.740;2024-02-15T03:23:00;6.40;71.90
64817;DHT22;69411;45.656;11.740;2024-02-15T03:25:29;6.40;71.80
64817;DHT22;69411;45.656;11.740;2024-02-15T03:27:57;6.40;71.90
64817;DHT22;69411;45.656;11.740;2024-02-15T03:30:27;6.40;72.00
64817;DHT22;69411;45.656;11.740;2024-02-15T03:32:55;6.40;72.00
64817;DHT22;69411;45.656;11.740;2024-02-15T03:35:22;6.40;72.10
64817;DHT22;69411;45.656;11.740;2024-02-15T03:37:48;6.40;71.90
64817;DHT22;69411;45.656;11.740;2024-02-15T03:40:22;6.40;72.00
64817;DHT22;69411;45.656;11.740;2024-02-15T03:42:48;6.40;71.70
64817;DHT22;69411;45.656;11.740;2024-02-15T03:45:15;6.40;72.10
64817;DHT22;69411;45.656;11.740;2024-02-15T03:47:41;6.40;71.70
64817;DHT22;69411;45.656;11.740;2024-02-15T03:50:08;6.30;71.90
64817;DHT22;69411;45.656;11.740;2024-02-15T03:52:38;6.30;71.90
64817;DHT22;69411;45.656;11.740;2024-02-15T03:55:05;6.30;72.20
64817;DHT22;69411;45.656;11.740;2024-02-15T03:57:31;6.30;72.00
64817;DHT22;69411;45.656;11.740;2024-02-15T03:59:59;6.20;72.20
64817;DHT22;69411;45.656;11.740;2024-02-15T04:02:25;6.20;72.20
64817;DHT22;69411;45.656;11.740;2024-02-15T04:04:55;6.20;72.20
64817;DHT22;69411;45.656;11.740;2024-02-15T04:07:22;6.10;72.00
64817;DHT22;69411;45.656;11.740;2024-02-15T04:09:48;6.10;71.80
64817;DHT22;69411;45.656;11.740;2024-02-15T04:12:14;6.10;71.80
64817;DHT22;69411;45.656;11.740;2024-02-15T04:14:41;6.10;71.90
64817;DHT22;69411;45.656;11.740;2024-02-15T04:17:07;6.10;71.90
64817;DHT22;69411;45.656;11.740;2024-02-15T04:19:33;6.10;71.80
64817;DHT22;69411;45.656;11.740;2024-02-15T04:22:00;6.10;72.10
64817;DHT22;69411;45.656;11.740;2024-02-15T04:24:26;6.10;72.10
64817;DHT22;69411;45.656;11.740;2024-02-15T04:26:52;6.10;72.20
64817;DHT22;69411;45.656;11.740;2024-02-15T04:29:19;6.10;72.00
64817;DHT22;69411;45.656;11.740;2024-02-15T04:31:46;6.00;72.10
64817;DHT22;69411;45.656;11.740;2024-02-15T04:34:18;6.10;72.20
64817;DHT22;69411;45.656;11.740;2024-02-15T04:36:47;6.00;72.10
64817;DHT22;69411;45.656;11.740;2024-02-15T04:39:17;6.00;72.20
64817;DHT22;69411;45.656;11.740;2024-02-15T04:41:55;6.00;72.20
64817;DHT22;69411;45.656;11.740;2024-02-15T04:44:21;6.00;72.20
64817;DHT22;69411;45.656;11.740;2024-02-15T04:46:48;6.00;72.20
64817;DHT22;69411;45.656;11.740;2024-02-15T04:49:17;5.90;72.30
64817;DHT22;69411;45.656;11.740;2024-02-15T04:51:44;5.90;72.10
64817;DHT22;69411;45.656;11.740;2024-02-15T04:54:11;5.90;72.50
64817;DHT22;69411;45.656;11.740;2024-02-15T04:56:42;5.90;72.60
64817;DHT22;69411;45.656;11.740;2024-02-15T04:59:11;5.90;72.30
64817;DHT22;69411;45.656;11.740;2024-02-15T05:01:43;5.90;72.30
64817;DHT22;69411;45.656;11.740;2024-02-15T05:04:10;5.80;72.30
64817;DHT22;69411;45.656;11.740;2024-02-15T05:06:37;5.80;72.20
64817;DHT22;69411;45.656;11.740;2024-02-15T05:09:03;5.80;72.30
64817;DHT22;69411;45.656;11.740;2024-02-15T05:11:33;5.70;72.50
64817;DHT22;69411;45.656;11.740;2024-02-15T05:14:02;5.70;72.70
64817;DHT22;69411;45.656;11.740;2024-02-15T05:16:32;5.70;72.40
64817;DHT22;69411;45.656;11.740;2024-02-15T05:18:58;5.70;72.60
64817;DHT22;69411;45.656;11.740;2024-02-15T05:21:24;5.60;72.70
64817;DHT22;69411;45.656;11.740;2024-02-15T05:23:50;5.60;72.50
64817;DHT22;69411;45.656;11.740;2024-02-15T05:26:18;5.60;72.70
64817;DHT22;69411;45.656;11.740;2024-02-15T05:28:49;5.50;72.90
64817;DHT22;69411;45.656;11.740;2024-02-15T05:31:18;5.50;73.10
64817;DHT22;69411;45.656;11.740;2024-02-15T05:33:49;5.50;73.10
64817;DHT22;69411;45.656;11.740;2024-02-15T05:36:17;5.40;73.00
64817;DHT22;69411;45.656;11.740;2024-02-15T05:38:49;5.40;73.10
64817;DHT22;69411;45.656;11.740;2024-02-15T05:41:16;5.40;73.30
64817;DHT22;69411;45.656;11.740;2024-02-15T05:43:42;5.40;73.30
64817;DHT22;69411;45.656;11.740;2024-02-15T05:46:09;5.30;73.40
64817;DHT22;69411;45.656;11.740;2024-02-15T05:48:36;5.40;73.50
64817;DHT22;69411;45.656;11.740;2024-02-15T05:51:04;5.40;73.40
64817;DHT22;69411;45.656;11.740;2024-02-15T05:53:31;5.40;73.10
64817;DHT22;69411;45.656;11.740;2024-02-15T05:56:08;5.40;73.40
64817;DHT22;69411;45.656;11.740;2024-02-15T05:58:38;5.40;73.10
64817;DHT22;69411;45.656;11.740;2024-02-15T06:01:06;5.40;73.20
64817;DHT22;69411;45.656;11.740;2024-02-15T06:03:37;5.40;73.10
64817;DHT22;69411;45.656;11.740;2024-02-15T06:06:05;5.40;73.20
64817;DHT22;69411;45.656;11.740;2024-02-15T06:08:35;5.40;73.10
64817;DHT22;69411;45.656;11.740;2024-02-15T06:11:02;5.30;73.20
64817;DHT22;69411;45.656;11.740;2024-02-15T06:13:30;5.30;73.10
64817;DHT22;69411;45.656;11.740;2024-02-15T06:15:56;5.30;73.40
64817;DHT22;69411;45.656;11.740;2024-02-15T06:18:25;5.30;73.40
64817;DHT22;69411;45.656;11.740;2024-02-15T06:20:56;5.30;73.20
64817;DHT22;69411;45.656;11.740;2024-02-15T06:23:28;5.40;73.30
64817;DHT22;69411;45.656;11.740;2024-02-15T06:25:55;5.40;73.10
64817;DHT22;69411;45.656;11.740;2024-02-15T06:28:23;5.40;73.10
64817;DHT22;69411;45.656;11.740;2024-02-15T06:31:08;5.40;73.30
64817;DHT22;69411;45.656;11.740;2024-02-15T06:33:54;5.40;73.30
64817;DHT22;69411;45.656;11.740;2024-02-15T06:36:57;5.40;73.30
64817;DHT22;69411;45.656;11.740;2024-02-15T06:39:41;5.40;73.10
64817;DHT22;69411;45.656;11.740;2024-02-15T06:44:39;5.40;73.40
64817;DHT22;69411;45.656;11.740;2024-02-15T06:47:06;5.40;73.80
64817;DHT22;69411;45.656;11.740;2024-02-15T06:49:32;5.50;74.10
64817;DHT22;69411;45.656;11.740;2024-02-15T06:52:02;5.50;73.90
64817;DHT22;69411;45.656;11.740;2024-02-15T06:54:28;5.60;73.90
64817;DHT22;69411;45.656;11.740;2024-02-15T06:56:54;5.60;73.90
64817;DHT22;69411;45.656;11.740;2024-02-15T06:59:20;5.80;73.90
64817;DHT22;69411;45.656;11.740;2024-02-15T07:01:49;5.90;74.10
64817;DHT22;69411;45.656;11.740;2024-02-15T07:04:18;6.00;73.80
64817;DHT22;69411;45.656;11.740;2024-02-15T07:06:46;6.10;73.80
64817;DHT22;69411;45.656;11.740;2024-02-15T07:09:14;6.10;73.90
64817;DHT22;69411;45.656;11.740;2024-02-15T07:11:46;6.10;73.50
64817;DHT22;69411;45.656;11.740;2024-02-15T07:14:15;6.20;73.70
64817;DHT22;69411;45.656;11.740;2024-02-15T07:16:49;6.10;73.40
64817;DHT22;69411;45.656;11.740;2024-02-15T07:19:16;6.20;73.20
64817;DHT22;69411;45.656;11.740;2024-02-15T07:21:44;6.20;73.50
64817;DHT22;69411;45.656;11.740;2024-02-15T07:24:12;6.40;73.80
64817;DHT22;69411;45.656;11.740;2024-02-15T07:26:39;6.60;73.80
64817;DHT22;69411;45.656;11.740;2024-02-15T07:29:05;6.80;74.00
64817;DHT22;69411;45.656;11.740;2024-02-15T07:31:32;7.10;74.00
64817;DHT22;69411;45.656;11.740;2024-02-15T07:33:59;7.30;73.70
64817;DHT22;69411;45.656;11.740;2024-02-15T07:36:25;7.60;73.50
64817;DHT22;69411;45.656;11.740;2024-02-15T07:38:53;7.80;73.10
64817;DHT22;69411;45.656;11.740;2024-02-15T07:41:21;8.10;72.90
64817;DHT22;69411;45.656;11.740;2024-02-15T07:43:48;8.30;72.30
64817;DHT22;69411;45.656;11.740;2024-02-15T07:46:16;8.50;71.90
64817;DHT22;69411;45.656;11.740;2024-02-15T07:48:45;8.80;71.90
64817;DHT22;69411;45.656;11.740;2024-02-15T07:51:22;9.00;71.80
64817;DHT22;69411;45.656;11.740;2024-02-15T07:53:49;9.30;71.10
64817;DHT22;69411;45.656;11.740;2024-02-15T07:56:17;9.40;70.70
64817;DHT22;69411;45.656;11.740;2024-02-15T07:58:46;9.60;70.00
64817;DHT22;69411;45.656;11.740;2024-02-15T08:01:16;9.80;69.10
64817;DHT22;69411;45.656;11.740;2024-02-15T08:03:42;9.90;68.90
64817;DHT22;69411;45.656;11.740;2024-02-15T08:06:11;10.10;68.40
64817;DHT22;69411;45.656;11.740;2024-02-15T08:08:46;10.20;68.20
64817;DHT22;69411;45.656;11.740;2024-02-15T08:11:15;10.30;68.10
64817;DHT22;69411;45.656;11.740;2024-02-15T08:16:22;10.50;68.00
64817;DHT22;69411;45.656;11.740;2024-02-15T08:18:49;10.70;67.90
64817;DHT22;69411;45.656;11.740;2024-02-15T08:21:18;10.80;67.60
64817;DHT22;69411;45.656;11.740;2024-02-15T08:23:46;10.90;67.50
64817;DHT22;69411;45.656;11.740;2024-02-15T08:26:12;10.90;67.60
64817;DHT22;69411;45.656;11.740;2024-02-15T08:28:38;11.00;67.70
64817;DHT22;69411;45.656;11.740;2024-02-15T08:31:04;11.10;67.30
64817;DHT22;69411;45.656;11.740;2024-02-15T08:33:30;11.20;67.00
64817;DHT22;69411;45.656;11.740;2024-02-15T08:35:57;11.20;67.10
64817;DHT22;69411;45.656;11.740;2024-02-15T08:38:23;11.30;67.00
64817;DHT22;69411;45.656;11.740;2024-02-15T08:40:49;11.40;66.80
64817;DHT22;69411;45.656;11.740;2024-02-15T08:43:15;11.40;66.90
64817;DHT22;69411;45.656;11.740;2024-02-15T08:45:42;11.50;66.60
64817;DHT22;69411;45.656;11.740;2024-02-15T08:48:08;11.50;66.10
64817;DHT22;69411;45.656;11.740;2024-02-15T08:50:34;11.50;65.60
64817;DHT22;69411;45.656;11.740;2024-02-15T08:53:01;11.60;66.10
64817;DHT22;69411;45.656;11.740;2024-02-15T08:55:27;11.70;66.10
64817;DHT22;69411;45.656;11.740;2024-02-15T08:57:53;11.70;65.90
64817;DHT22;69411;45.656;11.740;2024-02-15T09:00:20;11.80;66.40
64817;DHT22;69411;45.656;11.740;2024-02-15T09:02:47;11.90;66.10
64817;DHT22;69411;45.656;11.740;2024-02-15T09:05:14;11.90;65.50
64817;DHT22;69411;45.656;11.740;2024-02-15T09:07:41;12.00;65.60
64817;DHT22;69411;45.656;11.740;2024-02-15T09:10:11;12.00;65.50
64817;DHT22;69411;45.656;11.740;2024-02-15T09:12:38;12.10;66.40
64817;DHT22;69411;45.656;11.740;2024-02-15T09:15:06;12.20;66.00
64817;DHT22;69411;45.656;11.740;2024-02-15T09:17:35;12.30;65.90
64817;DHT22;69411;45.656;11.740;2024-02-15T09:20:11;12.40;65.60
64817;DHT22;69411;45.656;11.740;2024-02-15T09:22:52;12.40;65.80
64817;DHT22;69411;45.656;11.740;2024-02-15T09:25:23;12.50;65.20
64817;DHT22;69411;45.656;11.740;2024-02-15T09:27:50;12.60;64.80
64817;DHT22;69411;45.656;11.740;2024-02-15T09:30:17;12.60;64.70
64817;DHT22;69411;45.656;11.740;2024-02-15T09:32:44;12.70;64.50
64817;DHT22;69411;45.656;11.740;2024-02-15T09:35:11;12.70;63.70
64817;DHT22;69411;45.656;11.740;2024-02-15T09:37:48;12.80;64.00
64817;DHT22;69411;45.656;11.740;2024-02-15T09:40:15;12.80;63.60
64817;DHT22;69411;45.656;11.740;2024-02-15T09:42:43;12.80;63.20
64817;DHT22;69411;45.656;11.740;2024-02-15T09:45:13;12.80;63.40
64817;DHT22;69411;45.656;11.740;2024-02-15T09:47:44;12.90;63.30
64817;DHT22;69411;45.656;11.740;2024-02-15T09:50:15;12.90;63.40
64817;DHT22;69411;45.656;11.740;2024-02-15T09:53:00;13.00;63.00
64817;DHT22;69411;45.656;11.740;2024-02-15T09:55:34;13.10;63.80
64817;DHT22;69411;45.656;11.740;2024-02-15T09:58:01;13.20;63.30
64817;DHT22;69411;45.656;11.740;2024-02-15T10:00:27;13.30;63.20
64817;DHT22;69411;45.656;11.740;2024-02-15T10:02:53;13.30;62.60
64817;DHT22;69411;45.656;11.740;2024-02-15T10:05:20;13.40;62.90
64817;DHT22;69411;45.656;11.740;2024-02-15T10:07:47;13.50;61.30
64817;DHT22;69411;45.656;11.740;2024-02-15T10:10:17;13.50;60.40
64817;DHT22;69411;45.656;11.740;2024-02-15T10:12:48;13.50;61.30
64817;DHT22;69411;45.656;11.740;2024-02-15T10:15:36;13.60;61.00
64817;DHT22;69411;45.656;11.740;2024-02-15T10:20:29;13.90;60.10
64817;DHT22;69411;45.656;11.740;2024-02-15T10:25:27;14.00;60.50
64817;DHT22;69411;45.656;11.740;2024-02-15T10:28:11;14.10;60.50
64817;DHT22;69411;45.656;11.740;2024-02-15T10:30:39;14.30;60.30
64817;DHT22;69411;45.656;11.740;2024-02-15T10:33:27;14.40;58.70
64817;DHT22;69411;45.656;11.740;2024-02-15T10:36:10;14.40;58.20
64817;DHT22;69411;45.656;11.740;2024-02-15T10:38:40;14.40;57.70
64817;DHT22;69411;45.656;11.740;2024-02-15T10:41:07;14.40;56.80
64817;DHT22;69411;45.656;11.740;2024-02-15T10:43:40;14.40;58.00
64817;DHT22;69411;45.656;11.740;2024-02-15T10:46:08;14.50;58.50
64817;DHT22;69411;45.656;11.740;2024-02-15T10:48:36;14.60;58.30
64817;DHT22;69411;45.656;11.740;2024-02-15T10:51:04;14.60;58.10
64817;DHT22;69411;45.656;11.740;2024-02-15T10:53:35;14.70;55.40
64817;DHT22;69411;45.656;11.740;2024-02-15T10:56:18;14.70;56.50
64817;DHT22;69411;45.656;11.740;2024-02-15T10:59:18;14.80;56.10
64817;DHT22;69411;45.656;11.740;2024-02-15T11:01:45;14.80;56.40
64817;DHT22;69411;45.656;11.740;2024-02-15T11:04:15;14.90;56.20
64817;DHT22;69411;45.656;11.740;2024-02-15T11:06:43;14.90;54.90
64817;DHT22;69411;45.656;11.740;2024-02-15T11:09:11;14.90;55.70
64817;DHT22;69411;45.656;11.740;2024-02-15T11:11:38;14.90;55.90
64817;DHT22;69411;45.656;11.740;2024-02-15T11:14:27;14.90;54.30
64817;DHT22;69411;45.656;11.740;2024-02-15T11:17:01;14.90;54.70
64817;DHT22;69411;45.656;11.740;2024-02-15T11:22:02;15.00;53.80
64817;DHT22;69411;45.656;11.740;2024-02-15T11:24:34;14.90;54.60
64817;DHT22;69411;45.656;11.740;2024-02-15T11:27:06;15.00;52.40
64817;DHT22;69411;45.656;11.740;2024-02-15T11:29:56;15.00;55.30
64817;DHT22;69411;45.656;11.740;2024-02-15T11:32:43;15.10;54.60
64817;DHT22;69411;45.656;11.740;2024-02-15T11:35:17;15.20;55.50
64817;DHT22;69411;45.656;11.740;2024-02-15T11:40:21;15.30;54.90
64817;DHT22;69411;45.656;11.740;2024-02-15T11:42:54;15.30;53.90
64817;DHT22;69411;45.656;11.740;2024-02-15T11:45:20;15.40;55.50
64817;DHT22;69411;45.656;11.740;2024-02-15T11:47:52;15.50;55.60
64817;DHT22;69411;45.656;11.740;2024-02-15T11:50:19;15.50;55.60
64817;DHT22;69411;45.656;11.740;2024-02-15T11:52:47;15.60;55.30
64817;DHT22;69411;45.656;11.740;2024-02-15T11:55:18;15.60;55.50
64817;DHT22;69411;45.656;11.740;2024-02-15T11:57:57;15.70;54.50
64817;DHT22;69411;45.656;11.740;2024-02-15T12:00:46;15.80;54.70
64817;DHT22;69411;45.656;11.740;2024-02-15T12:03:31;15.80;55.10
64817;DHT22;69411;45.656;11.740;2024-02-15T12:06:18;15.90;54.40
64817;DHT22;69411;45.656;11.740;2024-02-15T12:09:03;15.90;54.00
64817;DHT22;69411;45.656;11.740;2024-02-15T12:11:47;15.90;54.10
64817;DHT22;69411;45.656;11.740;2024-02-15T12:14:31;15.90;53.70
64817;DHT22;69411;45.656;11.740;2024-02-15T12:17:16;16.00;54.60
64817;DHT22;69411;45.656;11.740;2024-02-15T12:20:02;16.10;54.10
64817;DHT22;69411;45.656;11.740;2024-02-15T12:22:41;16.10;54.30
64817;DHT22;69411;45.656;11.740;2024-02-15T12:25:14;16.20;53.50
64817;DHT22;69411;45.656;11.740;2024-02-15T12:27:42;16.20;54.10
64817;DHT22;69411;45.656;11.740;2024-02-15T12:30:18;16.20;52.80
64817;DHT22;69411;45.656;11.740;2024-02-15T12:32:51;16.20;54.10
64817;DHT22;69411;45.656;11.740;2024-02-15T12:35:21;16.30;54.20
64817;DHT22;69411;45.656;11.740;2024-02-15T12:40:34;16.40;53.70
64817;DHT22;69411;45.656;11.740;2024-02-15T12:43:00;16.40;53.80
64817;DHT22;69411;45.656;11.740;2024-02-15T12:45:27;16.40;54.20
64817;DHT22;69411;45.656;11.740;2024-02-15T12:47:56;16.40;54.20
64817;DHT22;69411;45.656;11.740;2024-02-15T12:50:28;16.50;54.50
64817;DHT22;69411;45.656;11.740;2024-02-15T12:52:54;16.50;54.70
64817;DHT22;69411;45.656;11.740;2024-02-15T12:55:36;16.60;54.20
64817;DHT22;69411;45.656;11.740;2024-02-15T13:00:31;16.60;54.00
64817;DHT22;69411;45.656;11.740;2024-02-15T13:03:03;16.60;54.60
64817;DHT22;69411;45.656;11.740;2024-02-15T13:05:30;16.70;54.30
64817;DHT22;69411;45.656;11.740;2024-02-15T13:07:57;16.70;54.80
64817;DHT22;69411;45.656;11.740;2024-02-15T13:10:24;16.70;54.30
64817;DHT22;69411;45.656;11.740;2024-02-15T13:12:53;16.70;54.50
64817;DHT22;69411;45.656;11.740;2024-02-15T13:15:19;16.70;54.70
64817;DHT22;69411;45.656;11.740;2024-02-15T13:17:53;16.70;54.40
64817;DHT22;69411;45.656;11.740;2024-02-15T13:20:21;16.70;54.10
64817;DHT22;69411;45.656;11.740;2024-02-15T13:23:10;16.70;54.10
64817;DHT22;69411;45.656;11.740;2024-02-15T13:25:42;16.60;54.50
64817;DHT22;69411;45.656;11.740;2024-02-15T13:28:09;16.60;54.70
64817;DHT22;69411;45.656;11.740;2024-02-15T13:30:38;16.60;54.80
64817;DHT22;69411;45.656;11.740;2024-02-15T13:33:05;16.50;54.00
64817;DHT22;69411;45.656;11.740;2024-02-15T13:35:32;16.50;54.50
64817;DHT22;69411;45.656;11.740;2024-02-15T13:37:59;16.40;54.70
64817;DHT22;69411;45.656;11.740;2024-02-15T13:40:26;16.40;55.00
64817;DHT22;69411;45.656;11.740;2024-02-15T13:42:55;16.40;55.20
64817;DHT22;69411;45.656;11.740;2024-02-15T13:45:38;16.40;55.20
64817;DHT22;69411;45.656;11.740;2024-02-15T13:48:07;16.30;54.20
64817;DHT22;69411;45.656;11.740;2024-02-15T13:50:35;16.30;54.10
64817;DHT22;69411;45.656;11.740;2024-02-15T13:53:03;16.20;55.00
64817;DHT22;69411;45.656;11.740;2024-02-15T13:55:30;16.30;55.20
64817;DHT22;69411;45.656;11.740;2024-02-15T13:57:56;16.20;55.30
64817;DHT22;69411;45.656;11.740;2024-02-15T14:00:23;16.20;54.90
64817;DHT22;69411;45.656;11.740;2024-02-15T14:02:59;16.30;54.80
64817;DHT22;69411;45.656;11.740;2024-02-15T14:05:29;16.30;56.10
64817;DHT22;69411;45.656;11.740;2024-02-15T14:08:02;16.20;56.00
64817;DHT22;69411;45.656;11.740;2024-02-15T14:10:30;16.20;56.00
64817;DHT22;69411;45.656;11.740;2024-02-15T14:12:57;16.20;56.30
64817;DHT22;69411;45.656;11.740;2024-02-15T14:15:28;16.20;56.20
64817;DHT22;69411;45.656;11.740;2024-02-15T14:17:54;16.20;56.60
64817;DHT22;69411;45.656;11.740;2024-02-15T14:20:22;16.10;56.90
64817;DHT22;69411;45.656;11.740;2024-02-15T14:22:50;16.10;56.70
64817;DHT22;69411;45.656;11.740;2024-02-15T14:25:31;16.00;56.70
64817;DHT22;69411;45.656;11.740;2024-02-15T14:27:57;16.00;56.90
64817;DHT22;69411;45.656;11.740;2024-02-15T14:30:24;15.90;56.80
64817;DHT22;69411;45.656;11.740;2024-02-15T14:33:09;15.90;56.90
64817;DHT22;69411;45.656;11.740;2024-02-15T14:35:38;15.90;57.60
64817;DHT22;69411;45.656;11.740;2024-02-15T14:38:12;15.90;58.00
64817;DHT22;69411;45.656;11.740;2024-02-15T14:40:38;15.80;57.70
64817;DHT22;69411;45.656;11.740;2024-02-15T14:43:06;15.80;58.30
64817;DHT22;69411;45.656;11.740;2024-02-15T14:45:33;15.80;58.20
64817;DHT22;69411;45.656;11.740;2024-02-15T14:48:00;15.80;58.30
64817;DHT22;69411;45.656;11.740;2024-02-15T14:50:26;15.70;58.40
64817;DHT22;69411;45.656;11.740;2024-02-15T14:52:52;15.60;58.40
64817;DHT22;69411;45.656;11.740;2024-02-15T14:55:21;15.60;58.80
64817;DHT22;69411;45.656;11.740;2024-02-15T14:57:48;15.60;58.70
64817;DHT22;69411;45.656;11.740;2024-02-15T15:00:16;15.60;58.70
64817;DHT22;69411;45.656;11.740;2024-02-15T15:02:49;15.50;58.60
64817;DHT22;69411;45.656;11.740;2024-02-15T15:05:15;15.50;59.00
64817;DHT22;69411;45.656;11.740;2024-02-15T15:08:00;15.50;59.10
64817;DHT22;69411;45.656;11.740;2024-02-15T15:10:46;15.40;58.90
64817;DHT22;69411;45.656;11.740;2024-02-15T15:13:32;15.40;59.10
64817;DHT22;69411;45.656;11.740;2024-02-15T15:16:00;15.40;58.90
64817;DHT22;69411;45.656;11.740;2024-02-15T15:18:26;15.40;59.00
64817;DHT22;69411;45.656;11.740;2024-02-15T15:20:53;15.40;58.80
64817;DHT22;69411;45.656;11.740;2024-02-15T15:23:19;15.40;59.00
64817;DHT22;69411;45.656;11.740;2024-02-15T15:25:45;15.40;59.10
64817;DHT22;69411;45.656;11.740;2024-02-15T15:28:11;15.40;59.20
64817;DHT22;69411;45.656;11.740;2024-02-15T15:30:39;15.30;59.00
64817;DHT22;69411;45.656;11.740;2024-02-15T15:33:06;15.30;59.30
64817;DHT22;69411;45.656;11.740;2024-02-15T15:36:00;15.30;59.30
64817;DHT22;69411;45.656;11.740;2024-02-15T15:38:26;15.30;59.40
64817;DHT22;69411;45.656;11.740;2024-02-15T15:40:52;15.20;59.50
64817;DHT22;69411;45.656;11.740;2024-02-15T15:43:19;15.20;59.60
64817;DHT22;69411;45.656;11.740;2024-02-15T15:45:46;15.20;59.60
64817;DHT22;69411;45.656;11.740;2024-02-15T15:48:13;15.20;59.60
64817;DHT22;69411;45.656;11.740;2024-02-15T15:50:39;15.10;59.60
64817;DHT22;69411;45.656;11.740;2024-02-15T15:53:08;15.10;59.70
64817;DHT22;69411;45.656;11.740;2024-02-15T15:55:38;15.10;59.90
64817;DHT22;69411;45.656;11.740;2024-02-15T15:58:04;15.00;60.00
64817;DHT22;69411;45.656;11.740;2024-02-15T16:00:36;15.00;60.10